Time;durP1;ratioP1;P1;durP2;ratioP2;P2;SDS_P1;SDS_P2;PMS_P1;PMS_P2;Temp;Humidity;BMP_temperature;BMP_pressure;BME280_temperature;BME280_humidity;BME280_pressure;Samples;Min_cycle;Max_cycle;Signal;HPM_P1;HPM_P2
2022/12/02 00:01:47;;;;;;;69.53;27.20;;;;;;;4.13;100.00;102608.97;5020598;28;20038;-70
2022/12/02 00:04:20;;;;;;;64.18;25.90;;;;;;;4.13;100.00;102605.47;5018729;28;20363;-71
2022/12/02 00:06:45;;;;;;;57.93;24.40;;;;;;;4.14;100.00;102604.69;5025173;28;20033;-69
2022/12/02 00:09:34;;;;;;;67.53;26.70;;;;;;;4.16;100.00;102608.28;5015519;28;20029;-69
2022/12/02 00:12:10;;;;;;;74.47;27.60;;;;;;;4.17;100.00;102604.91;5012990;28;20029;-69
2022/12/02 00:14:35;;;;;;;80.57;26.85;;;;;;;4.15;100.00;102596.06;5024930;28;20056;-68
2022/12/02 00:17:01;;;;;;;64.90;27.10;;;;;;;4.18;100.00;102596.31;5014880;28;20057;-69
2022/12/02 00:19:26;;;;;;;65.60;26.70;;;;;;;4.19;100.00;102595.47;5012991;28;20025;-69
2022/12/02 00:21:51;;;;;;;64.45;25.10;;;;;;;4.19;100.00;102582.44;5012519;28;20072;-69
2022/12/02 00:24:18;;;;;;;75.13;27.58;;;;;;;4.20;100.00;102589.47;5012612;28;20109;-69
2022/12/02 00:26:44;;;;;;;68.65;27.15;;;;;;;4.20;100.00;102592.09;5013226;28;20091;-69
2022/12/02 00:29:09;;;;;;;70.32;26.45;;;;;;;4.22;100.00;102583.59;5015131;28;20481;-70
2022/12/02 00:31:35;;;;;;;74.63;28.65;;;;;;;4.21;100.00;102580.88;5025258;28;20022;-70
2022/12/02 00:34:01;;;;;;;71.50;27.77;;;;;;;4.24;100.00;102583.69;5022168;28;20025;-69
2022/12/02 00:36:27;;;;;;;74.90;28.98;;;;;;;4.25;100.00;102580.28;5026419;28;20119;-70
2022/12/02 00:38:53;;;;;;;79.25;28.55;;;;;;;4.25;100.00;102577.69;5014615;28;20030;-69
2022/12/02 00:41:18;;;;;;;74.97;29.05;;;;;;;4.24;100.00;102581.09;5031432;28;20104;-70
2022/12/02 00:46:30;;;;;;;74.25;27.85;;;;;;;4.22;100.00;102573.16;5021198;28;20040;-68
2022/12/02 00:49:06;;;;;;;79.03;29.13;;;;;;;4.22;100.00;102569.66;5012865;28;20022;-69
2022/12/02 00:51:33;;;;;;;70.95;27.58;;;;;;;4.23;100.00;102574.06;5021046;28;20351;-69
2022/12/02 00:53:58;;;;;;;75.75;28.02;;;;;;;4.22;100.00;102578.38;5014949;28;20080;-68
2022/12/02 00:56:23;;;;;;;75.10;28.75;;;;;;;4.20;100.00;102579.94;5018805;28;20049;-69
2022/12/02 00:58:49;;;;;;;79.85;29.27;;;;;;;4.20;100.00;102573.84;5025396;28;20025;-68
2022/12/02 01:01:14;;;;;;;80.25;29.75;;;;;;;4.19;100.00;102574.63;5020243;28;20029;-71
2022/12/02 01:03:40;;;;;;;93.50;31.98;;;;;;;4.21;100.00;102570.47;5021599;28;20037;-68
2022/12/02 01:06:05;;;;;;;84.35;30.80;;;;;;;4.20;100.00;102560.81;5020205;28;20084;-69
2022/12/02 01:08:32;;;;;;;77.28;30.30;;;;;;;4.21;100.00;102565.25;5029962;28;20532;-69
2022/12/02 01:10:57;;;;;;;91.93;32.95;;;;;;;4.19;100.00;102566.81;5028851;28;20061;-70
2022/12/02 01:13:24;;;;;;;90.18;31.63;;;;;;;4.18;100.00;102573.75;5016905;28;20026;-69
2022/12/02 01:15:50;;;;;;;84.70;31.10;;;;;;;4.21;100.00;102567.84;5012190;28;20534;-69
2022/12/02 01:18:16;;;;;;;88.25;33.35;;;;;;;4.20;100.00;102574.75;5012008;28;20032;-69
2022/12/02 01:20:41;;;;;;;91.75;32.90;;;;;;;4.24;100.00;102570.66;5013139;28;20034;-68
2022/12/02 01:23:07;;;;;;;101.32;36.50;;;;;;;4.22;100.00;102575.78;5010611;28;20505;-69
2022/12/02 01:25:33;;;;;;;88.28;34.53;;;;;;;4.18;100.00;102565.94;5012085;28;20030;-71
2022/12/02 01:27:58;;;;;;;104.00;38.30;;;;;;;4.22;100.00;102567.06;5018782;28;20514;-69
2022/12/02 01:30:23;;;;;;;101.07;35.17;;;;;;;4.22;100.00;102569.66;5016002;28;20025;-68
2022/12/02 01:32:49;;;;;;;99.70;38.17;;;;;;;4.22;100.00;102573.16;5021650;28;20037;-70
2022/12/02 01:35:14;;;;;;;109.60;38.45;;;;;;;4.20;100.00;102569.53;5018318;28;20358;-68
2022/12/02 01:37:39;;;;;;;93.30;36.00;;;;;;;4.18;100.00;102570.25;5026290;28;20033;-69
2022/12/02 01:40:06;;;;;;;102.47;37.75;;;;;;;4.17;100.00;102568.44;5023589;28;20022;-70
2022/12/02 01:42:32;;;;;;;96.90;38.67;;;;;;;4.16;100.00;102577.94;5019048;28;20032;-71
2022/12/02 01:44:58;;;;;;;102.18;38.42;;;;;;;4.13;100.00;102574.22;5019114;28;20389;-72
2022/12/02 01:47:23;;;;;;;107.05;39.72;;;;;;;4.12;100.00;102575.00;5020000;28;20029;-69
2022/12/02 01:49:50;;;;;;;105.47;40.25;;;;;;;4.07;100.00;102566.88;5029865;28;20109;-69
2022/12/02 01:52:15;;;;;;;105.88;39.28;;;;;;;4.07;100.00;102576.38;5025642;28;20113;-69
2022/12/02 01:54:40;;;;;;;100.55;36.70;;;;;;;4.05;100.00;102574.56;5023117;28;20101;-69
2022/12/02 01:57:10;;;;;;;108.45;38.00;;;;;;;4.07;100.00;102584.19;5015278;28;20026;-70
2022/12/02 01:59:36;;;;;;;102.25;37.00;;;;;;;4.05;100.00;102587.59;5026130;28;20021;-68
2022/12/02 02:02:01;;;;;;;104.30;37.95;;;;;;;4.00;100.00;102578.56;5020602;28;20050;-68
2022/12/02 02:04:26;;;;;;;107.35;37.85;;;;;;;4.05;100.00;102579.78;5017563;28;20048;-68
2022/12/02 02:06:52;;;;;;;97.43;36.65;;;;;;;4.03;100.00;102572.66;5022716;28;20068;-69
2022/12/02 02:09:17;;;;;;;104.38;37.05;;;;;;;3.98;100.00;102571.44;5014896;28;20404;-68
2022/12/02 02:11:43;;;;;;;103.97;37.55;;;;;;;3.96;100.00;102560.91;5011652;28;20105;-68
2022/12/02 02:14:12;;;;;;;101.72;38.42;;;;;;;3.96;100.00;102567.78;5013181;28;20048;-70
2022/12/02 02:16:38;;;;;;;96.68;36.28;;;;;;;3.93;100.00;102562.38;5023395;28;20156;-70
2022/12/02 02:19:06;;;;;;;100.97;36.35;;;;;;;3.87;100.00;102558.53;5021231;28;20036;-69
2022/12/02 02:21:38;;;;;;;97.03;38.50;;;;;;;3.86;100.00;102555.81;5016848;28;20390;-70
2022/12/02 02:24:03;;;;;;;95.68;36.15;;;;;;;3.88;100.00;102554.25;5012648;28;20542;-68
2022/12/02 02:26:29;;;;;;;104.85;36.75;;;;;;;3.84;100.00;102550.50;5015632;28;20108;-69
2022/12/02 02:28:54;;;;;;;100.85;37.00;;;;;;;3.83;100.00;102546.09;5017907;28;20026;-70
2022/12/02 02:31:20;;;;;;;102.25;36.53;;;;;;;3.83;100.00;102545.19;5014642;28;20026;-68
2022/12/02 02:33:47;;;;;;;103.05;37.78;;;;;;;3.83;100.00;102540.00;5022850;28;20018;-68
2022/12/02 02:36:12;;;;;;;96.68;34.50;;;;;;;3.84;100.00;102547.03;5014815;28;20033;-71
2022/12/02 02:38:38;;;;;;;101.40;36.47;;;;;;;3.84;100.00;102547.03;5017739;28;20482;-72
2022/12/02 02:41:04;;;;;;;99.50;36.22;;;;;;;3.83;100.00;102542.59;5015809;28;20032;-68
2022/12/02 02:43:30;;;;;;;96.13;34.53;;;;;;;3.82;100.00;102543.38;5019702;28;20030;-69
2022/12/02 02:45:57;;;;;;;103.47;39.35;;;;;;;3.80;100.00;102534.53;5021120;28;20056;-68
2022/12/02 02:48:24;;;;;;;97.45;37.95;;;;;;;3.80;100.00;102535.47;5022384;28;20033;-68
2022/12/02 02:50:50;;;;;;;105.47;38.08;;;;;;;3.80;100.00;102534.53;5029117;28;20048;-69
2022/12/02 02:53:18;;;;;;;99.07;35.08;;;;;;;3.82;100.00;102527.75;5024398;28;20030;-69
2022/12/02 02:55:44;;;;;;;106.35;38.42;;;;;;;3.83;100.00;102534.78;5031218;28;20057;-70
2022/12/02 02:58:21;;;;;;;102.63;36.42;;;;;;;3.85;100.00;102522.75;5014607;28;20085;-68
2022/12/02 03:01:15;;;;;;;106.75;37.83;;;;;;;3.84;100.00;102523.59;5015663;28;20474;-70
2022/12/02 03:03:45;;;;;;;93.80;34.60;;;;;;;3.85;100.00;102523.69;5010843;28;20375;-70
2022/12/02 03:06:13;;;;;;;97.80;33.15;;;;;;;3.83;100.00;102519.16;5018557;28;20105;-70
2022/12/02 03:08:41;;;;;;;98.30;35.85;;;;;;;3.81;100.00;102515.53;5025545;28;20033;-68
2022/12/02 03:11:06;;;;;;;95.43;32.88;;;;;;;3.84;100.00;102518.38;5029658;28;20523;-69
2022/12/02 03:13:34;;;;;;;88.00;33.00;;;;;;;3.80;100.00;102512.03;5014128;28;20122;-69
2022/12/02 03:16:02;;;;;;;94.78;34.22;;;;;;;3.80;100.00;102505.91;5032220;28;20091;-69
2022/12/02 03:18:27;;;;;;;102.55;34.20;;;;;;;3.80;100.00;102509.44;5013553;28;20029;-68
2022/12/02 03:20:53;;;;;;;98.47;32.85;;;;;;;3.82;100.00;102509.53;5014389;28;20033;-71
2022/12/02 03:23:18;;;;;;;99.25;35.30;;;;;;;3.81;100.00;102515.53;5013325;28;20030;-68
2022/12/02 03:25:44;;;;;;;98.85;33.63;;;;;;;3.82;100.00;102513.03;5027717;28;20088;-69
2022/12/02 03:28:10;;;;;;;100.07;33.95;;;;;;;3.83;100.00;102519.16;5017378;28;20535;-70
2022/12/02 03:30:37;;;;;;;97.18;32.85;;;;;;;3.82;100.00;102518.22;5017545;28;20104;-70
2022/12/02 03:33:02;;;;;;;97.47;32.72;;;;;;;3.83;100.00;102520.06;5013098;28;20030;-69
2022/12/02 03:35:28;;;;;;;93.93;32.65;;;;;;;3.81;100.00;102515.53;5013813;28;20108;-69
2022/12/02 03:37:53;;;;;;;99.35;33.95;;;;;;;3.83;100.00;102504.44;5012112;28;20034;-70
2022/12/02 03:40:19;;;;;;;102.13;34.92;;;;;;;3.83;100.00;102493.13;5020588;28;20017;-70
2022/12/02 03:42:44;;;;;;;96.97;32.33;;;;;;;3.84;100.00;102493.22;5020634;28;20025;-70
2022/12/02 03:45:11;;;;;;;99.35;32.95;;;;;;;3.83;100.00;102494.00;5013930;28;20370;-70
2022/12/02 03:47:37;;;;;;;96.93;33.47;;;;;;;3.85;100.00;102486.31;5016682;28;20038;-70
2022/12/02 03:50:03;;;;;;;95.85;32.55;;;;;;;3.85;100.00;102488.91;5013518;28;20085;-70
2022/12/02 03:52:29;;;;;;;91.13;32.38;;;;;;;3.84;100.00;102494.94;5016429;28;20025;-67
2022/12/02 03:54:54;;;;;;;100.60;34.63;;;;;;;3.86;100.00;102493.31;5024989;28;20642;-69
2022/12/02 03:57:20;;;;;;;93.68;33.78;;;;;;;3.85;100.00;102501.94;5012940;28;20021;-68
2022/12/02 03:59:45;;;;;;;96.35;34.08;;;;;;;3.85;100.00;102499.31;5028192;28;20496;-69
2022/12/02 04:02:11;;;;;;;90.22;32.35;;;;;;;3.84;100.00;102494.94;5024269;28;20053;-70
2022/12/02 04:04:36;;;;;;;101.80;34.35;;;;;;;3.84;100.00;102495.81;5013725;28;20100;-69
2022/12/02 04:07:01;;;;;;;97.97;33.60;;;;;;;3.86;100.00;102493.31;5017547;28;20504;-70
2022/12/02 04:09:27;;;;;;;93.55;33.65;;;;;;;3.87;100.00;102490.81;5023703;28;20456;-69
2022/12/02 04:11:52;;;;;;;89.25;31.65;;;;;;;3.86;100.00;102488.13;5027047;28;20030;-69
2022/12/02 04:14:17;;;;;;;101.80;33.33;;;;;;;3.85;100.00;102478.50;5022684;28;20079;-69
2022/12/02 04:16:43;;;;;;;96.65;34.42;;;;;;;3.85;100.00;102491.50;5014835;28;20055;-68
2022/12/02 04:19:08;;;;;;;105.10;34.85;;;;;;;3.85;100.00;102486.31;5013410;28;20022;-70
2022/12/02 04:21:33;;;;;;;99.97;31.98;;;;;;;3.84;100.00;102480.22;5014907;28;20159;-68
2022/12/02 04:23:59;;;;;;;100.43;31.55;;;;;;;3.84;100.00;102481.91;5015295;28;20103;-69
2022/12/02 04:26:24;;;;;;;98.72;34.38;;;;;;;3.83;100.00;102481.00;5013279;28;20068;-70
2022/12/02 04:28:49;;;;;;;111.78;33.88;;;;;;;3.81;100.00;102476.47;5027802;28;20033;-69
2022/12/02 04:31:15;;;;;;;101.28;32.88;;;;;;;3.82;100.00;102470.47;5016120;28;20040;-69
2022/12/02 04:33:40;;;;;;;97.25;33.65;;;;;;;3.82;100.00;102466.16;5024160;28;20053;-69
2022/12/02 04:36:05;;;;;;;104.40;33.97;;;;;;;3.81;100.00;102473.88;5014062;28;20061;-69
2022/12/02 04:38:31;;;;;;;108.88;36.95;;;;;;;3.80;100.00;102469.44;5014547;28;20030;-68
2022/12/02 04:40:56;;;;;;;102.07;35.50;;;;;;;3.79;100.00;102465.94;5011467;28;20025;-69
2022/12/02 04:43:21;;;;;;;96.35;34.13;;;;;;;3.79;100.00;102465.94;5014639;28;20048;-69
2022/12/02 04:45:47;;;;;;;99.43;32.50;;;;;;;3.80;100.00;102457.34;5013919;28;20025;-70
2022/12/02 04:48:12;;;;;;;103.57;33.08;;;;;;;3.79;100.00;102454.66;5015603;28;20358;-68
2022/12/02 04:50:38;;;;;;;81.60;28.98;;;;;;;3.79;100.00;102460.75;5032261;28;20362;-69
2022/12/02 04:53:03;;;;;;;79.25;27.85;;;;;;;3.78;100.00;102458.03;5016694;28;20088;-69
2022/12/02 04:55:28;;;;;;;80.50;27.52;;;;;;;3.81;100.00;102455.63;5025702;28;20049;-69
2022/12/02 04:57:54;;;;;;;70.60;27.45;;;;;;;3.77;100.00;102456.22;5021007;28;20029;-69
2022/12/02 05:00:19;;;;;;;74.75;25.75;;;;;;;3.75;100.00;102447.41;5012455;28;20045;-69
2022/12/02 05:02:44;;;;;;;67.53;24.92;;;;;;;3.79;100.00;102450.31;5012450;28;20096;-69
2022/12/02 05:05:10;;;;;;;64.47;24.92;;;;;;;3.77;100.00;102454.53;5012902;28;20540;-69
2022/12/02 05:07:36;;;;;;;65.13;24.88;;;;;;;3.76;100.00;102450.13;5012283;28;20109;-72
2022/12/02 05:10:01;;;;;;;62.72;23.95;;;;;;;3.72;100.00;102443.78;5026618;28;20342;-69
2022/12/02 05:12:27;;;;;;;64.43;22.80;;;;;;;3.70;100.00;102439.25;5021396;28;20022;-69
2022/12/02 05:14:52;;;;;;;68.40;23.83;;;;;;;3.70;100.00;102434.97;5020931;28;20037;-69
2022/12/02 05:17:18;;;;;;;60.78;23.98;;;;;;;3.68;100.00;102439.16;5021750;28;20037;-71
2022/12/02 05:19:43;;;;;;;70.80;24.33;;;;;;;3.70;100.00;102434.97;5016701;28;20112;-69
2022/12/02 05:22:09;;;;;;;67.38;24.00;;;;;;;3.71;100.00;102441.06;5015384;28;20014;-69
2022/12/02 05:24:34;;;;;;;58.03;22.08;;;;;;;3.69;100.00;102448.78;5031523;28;20033;-69
2022/12/02 05:26:59;;;;;;;63.33;24.25;;;;;;;3.68;100.00;102439.16;5026951;28;20025;-68
2022/12/02 05:29:25;;;;;;;60.75;24.42;;;;;;;3.68;100.00;102440.88;5025253;28;20072;-69
2022/12/02 05:31:51;;;;;;;65.28;22.23;;;;;;;3.70;100.00;102447.06;5012803;28;20045;-69
2022/12/02 05:34:16;;;;;;;63.40;23.25;;;;;;;3.69;100.00;102443.59;5021404;28;20021;-70
2022/12/02 05:36:41;;;;;;;62.90;23.55;;;;;;;3.66;100.00;102443.38;5018012;28;20450;-68
2022/12/02 05:39:07;;;;;;;61.03;22.65;;;;;;;3.69;100.00;102447.88;5012191;28;20029;-68
2022/12/02 05:41:32;;;;;;;65.22;22.70;;;;;;;3.67;100.00;102447.75;5011611;28;20026;-69
2022/12/02 05:44:06;;;;;;;63.55;23.65;;;;;;;3.64;100.00;102441.44;5014185;28;20025;-70
2022/12/02 05:46:31;;;;;;;69.20;23.65;;;;;;;3.63;100.00;102442.25;5024749;28;20025;-70
2022/12/02 05:48:57;;;;;;;59.90;22.80;;;;;;;3.66;100.00;102450.25;5016963;28;20098;-68
2022/12/02 05:51:22;;;;;;;65.45;24.33;;;;;;;3.64;100.00;102444.94;5017446;28;20034;-70
2022/12/02 05:53:49;;;;;;;60.10;24.23;;;;;;;3.63;100.00;102437.94;5012953;28;20458;-68
2022/12/02 05:56:25;;;;;;;72.50;26.77;;;;;;;3.66;100.00;102432.97;5011352;28;20057;-70
2022/12/02 05:58:51;;;;;;;70.93;26.83;;;;;;;3.60;100.00;102442.03;5031324;28;20461;-69
2022/12/02 06:01:38;;;;;;;76.60;26.65;;;;;;;3.58;100.00;102435.81;5028779;28;20041;-69
2022/12/02 06:04:11;;;;;;;71.55;25.75;;;;;;;3.60;100.00;102432.50;5017824;28;20084;-71
2022/12/02 06:06:37;;;;;;;70.50;25.10;;;;;;;3.58;100.00;102434.13;5016890;28;20453;-70
2022/12/02 06:09:10;;;;;;;81.68;25.58;;;;;;;3.56;100.00;102446.09;5031838;28;20368;-69
2022/12/02 06:11:37;;;;;;;60.47;24.08;;;;;;;3.53;100.00;102445.91;5028120;28;20022;-69
2022/12/02 06:14:17;;;;;;;59.72;23.95;;;;;;;3.55;100.00;102446.91;5021732;28;20398;-70
2022/12/02 06:16:56;;;;;;;64.38;24.63;;;;;;;3.49;100.00;102438.66;5017729;28;20029;-71
2022/12/02 06:19:50;;;;;;;72.15;23.63;;;;;;;3.48;100.00;102444.66;5019024;28;20040;-70
2022/12/02 06:22:21;;;;;;;;;;;;;;;3.45;100.00;102440.13;5010450;28;20545;-68
2022/12/02 06:24:47;;;;;;;61.55;21.48;;;;;;;3.38;100.00;102440.50;5037661;28;19914;-69
2022/12/02 06:27:14;;;;;;;64.07;23.20;;;;;;;3.38;100.00;102435.31;5016834;28;20057;-71
2022/12/02 06:29:53;;;;;;;59.22;23.50;;;;;;;3.36;100.00;102442.06;5015329;28;20038;-69
2022/12/02 06:32:21;;;;;;;62.55;21.90;;;;;;;3.36;100.00;102443.00;5014863;28;20029;-70
2022/12/02 06:34:49;;;;;;;65.25;23.30;;;;;;;3.36;100.00;102437.81;5014099;28;20375;-69
2022/12/02 06:37:29;;;;;;;63.05;23.00;;;;;;;3.35;100.00;102441.19;5019133;28;20056;-71
2022/12/02 06:39:57;;;;;;;59.75;22.75;;;;;;;3.33;100.00;102436.66;5026932;28;20033;-68
2022/12/02 06:42:34;;;;;;;59.88;21.65;;;;;;;3.33;100.00;102441.88;5019020;28;20048;-69
2022/12/02 06:45:14;;;;;;;72.45;23.83;;;;;;;3.28;100.00;102438.03;5023408;28;20104;-69
2022/12/02 06:47:48;;;;;;;65.53;23.08;;;;;;;3.30;100.00;102441.66;5029588;28;20033;-70
2022/12/02 06:50:23;;;;;;;70.60;22.38;;;;;;;3.27;100.00;102437.13;5017038;28;20029;-69
2022/12/02 06:52:48;;;;;;;66.13;23.63;;;;;;;3.17;100.00;102438.19;5024233;28;20078;-69
2022/12/02 06:55:36;;;;;;;64.88;22.48;;;;;;;3.18;100.00;102446.88;5031517;28;20017;-72
2022/12/02 06:58:24;;;;;;;68.78;22.50;;;;;;;3.13;100.00;102448.22;5041148;28;20061;-70
2022/12/02 07:00:49;;;;;;;67.18;22.42;;;;;;;3.17;100.00;102450.25;5041932;28;20032;-71
2022/12/02 07:03:33;;;;;;;63.45;22.80;;;;;;;3.15;100.00;102447.53;5025658;28;20021;-70
2022/12/02 07:06:20;;;;;;;67.50;22.70;;;;;;;3.15;100.00;102446.66;5030103;28;20045;-70
2022/12/02 07:08:46;;;;;;;58.33;20.95;;;;;;;3.14;100.00;102448.31;5041050;28;20041;-70
2022/12/02 07:11:20;;;;;;;65.88;22.75;;;;;;;3.12;100.00;102446.41;5031292;28;20051;-72
2022/12/02 07:13:45;;;;;;;66.25;21.23;;;;;;;3.12;100.00;102449.00;5029363;28;20112;-70
2022/12/02 07:16:37;;;;;;;67.30;22.15;;;;;;;3.08;100.00;102453.09;5024230;28;20113;-71
2022/12/02 07:19:12;;;;;;;60.40;20.83;;;;;;;3.03;100.00;102452.75;5015657;28;20053;-70
2022/12/02 07:21:37;;;;;;;64.10;20.60;;;;;;;3.02;100.00;102461.34;5022730;28;20026;-69
2022/12/02 07:24:03;;;;;;;62.35;21.27;;;;;;;3.00;100.00;102454.25;5033413;28;20037;-69
2022/12/02 07:26:28;;;;;;;70.30;23.75;;;;;;;2.97;100.00;102460.13;5030023;28;20108;-70
2022/12/02 07:28:59;;;;;;;58.45;21.33;;;;;;;2.99;100.00;102466.31;5015295;28;20029;-68
2022/12/02 07:31:28;;;;;;;55.83;19.52;;;;;;;2.91;100.00;102461.34;5023727;28;20477;-70
2022/12/02 07:33:54;;;;;;;69.38;22.02;;;;;;;2.92;100.00;102461.47;5019986;28;20467;-69
2022/12/02 07:36:19;;;;;;;58.35;21.30;;;;;;;2.93;100.00;102465.88;5027968;28;20025;-71
2022/12/02 07:38:45;;;;;;;54.67;22.55;;;;;;;2.89;100.00;102469.06;5024882;28;20558;-69
2022/12/02 07:41:12;;;;;;;55.45;21.08;;;;;;;2.92;100.00;102464.06;5025859;28;20029;-71
2022/12/02 07:43:37;;;;;;;65.05;19.92;;;;;;;2.94;100.00;102467.66;5015931;28;20098;-71
2022/12/02 07:46:09;;;;;;;55.72;19.23;;;;;;;2.92;100.00;102466.66;5042590;28;20037;-71
2022/12/02 07:48:34;;;;;;;59.30;20.95;;;;;;;2.86;100.00;102471.41;5044470;28;20021;-69
2022/12/02 07:51:00;;;;;;;58.28;20.05;;;;;;;2.85;100.00;102473.09;5042291;28;20035;-70
2022/12/02 07:53:25;;;;;;;59.72;20.45;;;;;;;2.82;100.00;102467.69;5036200;28;20080;-68
2022/12/02 07:55:51;;;;;;;55.90;19.30;;;;;;;2.77;100.00;102471.63;5025700;28;20026;-70
2022/12/02 07:58:16;;;;;;;52.28;18.52;;;;;;;2.77;100.00;102478.50;5024266;28;20033;-69
2022/12/02 08:00:41;;;;;;;54.30;19.55;;;;;;;2.73;100.00;102476.47;5013171;28;20025;-70
2022/12/02 08:03:07;;;;;;;54.15;18.60;;;;;;;2.73;100.00;102476.47;5026568;28;20104;-70
2022/12/02 08:05:32;;;;;;;48.75;17.63;;;;;;;2.77;100.00;102478.50;5020888;28;21072;-72
2022/12/02 08:07:57;;;;;;;52.72;19.33;;;;;;;2.78;100.00;102480.31;5030078;28;20534;-69
2022/12/02 08:10:23;;;;;;;45.53;17.40;;;;;;;2.76;100.00;102479.31;5028239;28;20034;-69
2022/12/02 08:12:48;;;;;;;51.92;20.10;;;;;;;2.79;100.00;102472.63;5013531;28;20068;-69
2022/12/02 08:15:14;;;;;;;46.70;18.50;;;;;;;2.81;100.00;102471.06;5026752;28;20527;-69
2022/12/02 08:17:41;;;;;;;51.55;18.77;;;;;;;2.80;100.00;102483.97;5029811;28;20474;-69
2022/12/02 08:20:09;;;;;;;46.30;16.95;;;;;;;2.77;100.00;102478.50;5028986;28;20516;-70
2022/12/02 08:22:35;;;;;;;48.78;17.80;;;;;;;2.77;100.00;102491.50;5019971;28;20493;-69
2022/12/02 08:25:00;;;;;;;49.33;17.58;;;;;;;2.80;100.00;102481.38;5017427;28;20108;-71
2022/12/02 08:27:26;;;;;;;46.70;17.88;;;;;;;2.78;100.00;102486.44;5032719;28;20025;-70
2022/12/02 08:29:51;;;;;;;47.08;17.58;;;;;;;2.78;100.00;102480.31;5023807;28;20084;-70
2022/12/02 08:32:17;;;;;;;40.80;15.73;;;;;;;2.79;100.00;102488.22;5020219;28;20079;-71
2022/12/02 08:34:43;;;;;;;37.35;15.27;;;;;;;2.78;100.00;102481.25;5021054;28;20046;-69
2022/12/02 08:37:08;;;;;;;44.97;16.73;;;;;;;2.82;100.00;102482.38;5017758;28;20481;-70
2022/12/02 08:39:34;;;;;;;44.53;17.27;;;;;;;2.79;100.00;102485.63;5023243;28;20032;-70
2022/12/02 08:41:59;;;;;;;46.92;17.77;;;;;;;2.83;100.00;102476.38;5021834;28;20022;-69
2022/12/02 08:44:24;;;;;;;49.08;16.02;;;;;;;2.85;100.00;102474.81;5022348;28;20057;-69
2022/12/02 08:46:50;;;;;;;42.63;15.80;;;;;;;2.85;100.00;102477.41;5018507;28;20021;-68
2022/12/02 08:49:15;;;;;;;32.55;14.18;;;;;;;2.86;100.00;102479.19;5021665;28;20079;-69
2022/12/02 08:51:41;;;;;;;48.72;17.00;;;;;;;2.92;100.00;102483.97;5021949;28;20022;-70
2022/12/02 08:54:06;;;;;;;40.40;15.23;;;;;;;2.90;100.00;102485.53;5032713;28;20040;-69
2022/12/02 08:56:32;;;;;;;43.97;16.00;;;;;;;2.91;100.00;102487.38;5025743;28;20112;-70
2022/12/02 08:58:57;;;;;;;39.08;14.13;;;;;;;2.92;100.00;102486.59;5016268;28;20066;-71
2022/12/02 09:01:23;;;;;;;44.00;15.25;;;;;;;2.91;100.00;102484.75;5017163;28;20042;-71
2022/12/02 09:03:48;;;;;;;32.80;13.93;;;;;;;2.94;100.00;102482.38;5012819;28;20052;-72
2022/12/02 09:06:13;;;;;;;28.60;12.35;;;;;;;2.90;100.00;102481.22;5028142;28;20068;-73
2022/12/02 09:08:39;;;;;;;30.70;12.77;;;;;;;2.99;100.00;102474.13;5012443;28;20126;-69
2022/12/02 09:11:04;;;;;;;38.83;14.88;;;;;;;2.97;100.00;102473.13;5018812;28;20032;-69
2022/12/02 09:13:29;;;;;;;30.23;13.75;;;;;;;3.06;100.00;102482.38;5019284;28;20529;-69
2022/12/02 09:15:58;;;;;;;35.55;13.38;;;;;;;3.17;100.00;102484.06;5023323;28;20025;-71
2022/12/02 09:18:24;;;;;;;30.58;13.43;;;;;;;3.11;100.00;102481.03;5021371;28;20021;-70
2022/12/02 09:20:49;;;;;;;30.42;14.27;;;;;;;3.06;100.00;102478.06;5029933;28;20022;-70
2022/12/02 09:23:15;;;;;;;35.22;13.32;;;;;;;3.07;100.00;102479.00;5011419;28;20018;-69
2022/12/02 09:25:40;;;;;;;36.05;13.82;;;;;;;3.12;100.00;102482.81;5021614;28;20038;-70
2022/12/02 09:28:05;;;;;;;33.13;13.98;;;;;;;3.10;100.00;102485.31;5018449;28;20037;-69
2022/12/02 09:30:31;;;;;;;29.60;13.43;;;;;;;3.12;100.00;102488.03;5018413;28;20025;-70
2022/12/02 09:32:56;;;;;;;38.33;14.10;;;;;;;3.16;100.00;102490.06;5012232;28;20885;-69
2022/12/02 09:35:24;;;;;;;36.38;14.30;;;;;;;3.18;100.00;102483.28;5012367;28;20033;-69
2022/12/02 09:37:49;;;;;;;29.48;13.27;;;;;;;3.19;100.00;102486.00;5023378;28;20630;-70
2022/12/02 09:40:15;;;;;;;36.97;14.10;;;;;;;3.15;100.00;102483.06;5020460;28;20024;-69
2022/12/02 09:42:41;;;;;;;33.17;15.25;;;;;;;3.28;100.00;102488.34;5019452;28;20152;-69
2022/12/02 09:45:06;;;;;;;35.83;14.68;;;;;;;3.23;100.00;102491.41;5030469;28;20041;-70
2022/12/02 09:47:32;;;;;;;38.05;14.30;;;;;;;3.14;100.00;102487.34;5021238;28;20036;-71
2022/12/02 09:49:58;;;;;;;38.97;12.88;;;;;;;3.17;100.00;102486.66;5018355;28;20026;-72
2022/12/02 09:52:25;;;;;;;33.63;13.63;;;;;;;3.18;100.00;102486.78;5009589;28;20118;-69
2022/12/02 09:54:52;;;;;;;25.77;11.75;;;;;;;3.09;100.00;102487.81;5012407;28;20104;-71
2022/12/02 09:57:19;;;;;;;30.92;12.05;;;;;;;3.09;100.00;102480.91;5008653;28;22610;-70
2022/12/02 09:59:45;;;;;;;27.25;11.25;;;;;;;3.04;100.00;102475.38;5011621;28;20037;-68
2022/12/02 10:02:28;;;;;;;25.77;11.60;;;;;;;3.09;100.00;102474.81;5011659;28;20049;-70
2022/12/02 10:04:56;;;;;;;27.55;10.95;;;;;;;3.11;100.00;102473.22;5010808;28;20037;-69
2022/12/02 10:07:21;;;;;;;26.17;12.15;;;;;;;3.24;100.00;102472.41;5011468;28;20131;-69
2022/12/02 10:09:47;;;;;;;28.65;11.27;;;;;;;3.36;100.00;102474.22;5009398;28;20041;-69
2022/12/02 10:12:12;;;;;;;28.27;11.95;;;;;;;3.43;100.00;102469.44;5011632;28;20030;-69
2022/12/02 10:14:38;;;;;;;23.92;10.82;;;;;;;3.55;100.00;102470.31;5017757;28;20385;-68
2022/12/02 10:17:16;;;;;;;26.70;12.52;;;;;;;3.64;100.00;102468.38;5018056;28;21062;-70
2022/12/02 10:19:41;;;;;;;28.10;11.48;;;;;;;3.67;100.00;102457.28;5012337;28;20029;-69
2022/12/02 10:22:15;;;;;;;28.35;10.98;;;;;;;3.66;100.00;102459.00;5015132;28;20354;-71
2022/12/02 10:24:41;;;;;;;25.80;12.10;;;;;;;3.78;100.00;102460.63;5026154;28;20033;-79
2022/12/02 10:27:06;;;;;;;24.33;11.77;;;;;;;3.69;100.00;102448.78;5011353;28;20030;-69
2022/12/02 10:29:32;;;;;;;32.33;12.05;;;;;;;3.83;100.00;102456.66;5014038;28;20034;-69
2022/12/02 10:32:05;;;;;;;28.38;11.48;;;;;;;3.77;100.00;102454.53;5017644;28;20024;-69
2022/12/02 10:34:32;;;;;;;;;;;;;;;3.82;100.00;102445.31;5023561;28;20096;-70
2022/12/02 10:37:24;;;;;;;29.23;11.52;;;;;;;3.62;100.00;102438.75;5011404;28;20008;-70
2022/12/02 10:40:18;;;;;;;31.85;12.35;;;;;;;3.72;100.00;102437.69;5011346;28;20079;-68
2022/12/02 10:42:44;;;;;;;28.27;12.68;;;;;;;4.07;100.00;102425.28;5011444;28;20546;-70
2022/12/02 10:45:17;;;;;;;32.60;12.82;;;;;;;4.65;100.00;102418.81;5011878;28;20041;-70
2022/12/02 10:47:44;;;;;;;31.92;13.43;;;;;;;5.25;100.00;102416.56;5015514;28;20107;-70
2022/12/02 10:50:20;;;;;;;28.40;13.07;;;;;;;5.94;100.00;102414.75;5021434;28;20030;-72
2022/12/02 10:52:46;;;;;;;31.13;13.15;;;;;;;6.18;100.00;102411.81;5014931;28;20034;-69
2022/12/02 10:55:12;;;;;;;30.25;13.35;;;;;;;6.52;100.00;102421.66;5014923;28;20025;-71
2022/12/02 10:57:38;;;;;;;25.50;13.45;;;;;;;6.18;100.00;102435.34;5014495;28;20041;-73
2022/12/02 11:00:11;;;;;;;33.60;14.50;;;;;;;6.22;100.00;102434.72;5015173;28;20022;-68
2022/12/02 11:02:58;;;;;;;34.30;14.27;;;;;;;5.80;100.00;102426.94;5016164;28;20514;-70
2022/12/02 11:05:26;;;;;;;34.88;14.80;;;;;;;5.19;100.00;102429.22;5014246;28;20076;-67
2022/12/02 11:08:03;;;;;;;40.20;15.45;;;;;;;5.11;100.00;102420.00;5016301;28;20030;-70
2022/12/02 11:10:39;;;;;;;35.15;14.88;;;;;;;4.94;100.00;102414.59;5017177;28;20080;-69
2022/12/02 11:13:29;;;;;;;38.10;15.77;;;;;;;4.71;100.00;102421.81;5017638;28;20021;-69
2022/12/02 11:15:54;;;;;;;42.13;14.98;;;;;;;4.61;100.00;102419.38;5017262;28;20087;-69